createdAt,value
2023-01-29T00:02:00.621Z,102948.06
2023-01-29T00:04:28.715Z,102957.44
2023-01-29T00:06:58.158Z,102957.53
2023-01-29T00:09:35.388Z,102951.53
2023-01-29T00:12:03.541Z,102939.50
2023-01-29T00:14:31.589Z,102944.63
2023-01-29T00:16:59.760Z,102954.75
2023-01-29T00:19:27.842Z,102946.97
2023-01-29T00:21:57.242Z,102945.94
2023-01-29T00:24:25.398Z,102944.97
2023-01-29T00:26:53.468Z,102947.53
2023-01-29T00:29:22.087Z,102950.88
2023-01-29T00:31:50.274Z,102954.22
2023-01-29T00:34:18.583Z,102954.22
2023-01-29T00:36:46.740Z,102954.22
2023-01-29T00:39:16.133Z,102953.44
2023-01-29T00:42:01.713Z,102945.75
2023-01-29T00:44:47.225Z,102945.75
2023-01-29T00:47:34.191Z,102944.75
2023-01-29T00:50:02.733Z,102950.75
2023-01-29T00:52:30.941Z,102955.00
2023-01-29T00:55:01.956Z,102951.66
2023-01-29T00:57:32.090Z,102937.06
2023-01-29T01:00:00.408Z,102931.94
2023-01-29T01:02:46.589Z,102932.59
2023-01-29T01:05:18.932Z,102933.38
2023-01-29T01:07:48.099Z,102927.25
2023-01-29T01:10:22.257Z,102928.16
2023-01-29T01:12:55.238Z,102928.16
2023-01-29T01:15:24.587Z,102923.81
2023-01-29T01:17:56.180Z,102926.13
2023-01-29T01:20:24.715Z,102922.56
2023-01-29T01:22:54.397Z,102922.38
2023-01-29T01:25:24.322Z,102918.03
2023-01-29T01:27:54.180Z,102908.56
2023-01-29T01:30:22.468Z,102906.66
2023-01-29T01:32:50.568Z,102897.88
2023-01-29T01:35:18.827Z,102898.22
2023-01-29T01:37:47.024Z,102886.72
2023-01-29T01:40:20.954Z,102889.63
2023-01-29T01:42:51.443Z,102887.59
2023-01-29T01:45:22.931Z,102887.94
2023-01-29T01:47:54.951Z,102875.25
2023-01-29T01:50:26.419Z,102877.91
2023-01-29T01:52:59.055Z,102886.88
2023-01-29T01:55:30.982Z,102882.78
2023-01-29T01:58:07.525Z,102886.59
2023-01-29T02:00:35.563Z,102886.03
2023-01-29T02:03:23.021Z,102881.00
2023-01-29T02:06:09.514Z,102886.25
2023-01-29T02:09:01.632Z,102883.28
2023-01-29T02:11:29.702Z,102887.16
2023-01-29T02:13:59.389Z,102880.50
2023-01-29T02:16:27.657Z,102880.94
2023-01-29T02:18:55.713Z,102876.81
2023-01-29T02:21:58.693Z,102874.34
2023-01-29T02:25:10.552Z,102866.91
2023-01-29T02:28:11.974Z,102859.91
2023-01-29T02:30:46.758Z,102856.25
2023-01-29T02:33:22.599Z,102859.13
2023-01-29T02:36:01.292Z,102847.44
2023-01-29T02:38:36.379Z,102848.22
2023-01-29T02:41:12.825Z,102849.31
2023-01-29T02:43:48.264Z,102842.84
2023-01-29T02:46:31.258Z,102843.41
2023-01-29T02:49:03.232Z,102839.53
2023-01-29T02:51:39.855Z,102831.06
2023-01-29T02:54:11.861Z,102823.50
2023-01-29T02:56:46.771Z,102818.63
2023-01-29T02:59:22.440Z,102808.47
2023-01-29T03:01:54.844Z,102814.59
2023-01-29T03:04:27.784Z,102805.38
2023-01-29T03:07:01.975Z,102813.94
2023-01-29T03:09:35.956Z,102809.94
2023-01-29T03:12:31.295Z,102814.38
2023-01-29T03:15:12.516Z,102807.69
2023-01-29T03:17:46.654Z,102806.00
2023-01-29T03:20:19.015Z,102806.16
2023-01-29T03:22:52.236Z,102806.16
2023-01-29T03:25:42.942Z,102812.13
2023-01-29T03:28:31.113Z,102811.25
2023-01-29T03:31:23.331Z,102803.59
2023-01-29T03:33:53.891Z,102811.03
2023-01-29T03:36:28.045Z,102799.00
2023-01-29T03:38:56.069Z,102797.22
2023-01-29T03:41:30.700Z,102792.09
2023-01-29T03:44:11.415Z,102786.97
2023-01-29T03:46:47.829Z,102777.66
2023-01-29T03:49:23.171Z,102776.97
2023-01-29T03:51:57.705Z,102775.19
2023-01-29T03:54:32.658Z,102770.06
2023-01-29T03:57:05.641Z,102764.72
2023-01-29T03:59:40.868Z,102754.06
2023-01-29T04:02:15.577Z,102754.41
2023-01-29T04:04:46.431Z,102743.59
2023-01-29T04:07:17.534Z,102735.38
2023-01-29T04:09:49.750Z,102746.31
2023-01-29T04:12:24.698Z,102732.25
2023-01-29T04:14:55.511Z,102734.03
2023-01-29T04:17:33.040Z,102734.91
2023-01-29T04:20:02.709Z,102723.13
2023-01-29T04:22:34.287Z,102731.00
2023-01-29T04:25:08.670Z,102733.22
2023-01-29T04:27:46.424Z,102714.84
2023-01-29T04:30:27.790Z,102728.06
2023-01-29T04:33:05.571Z,102720.81
2023-01-29T04:35:42.661Z,102716.13
2023-01-29T04:38:24.962Z,102713.88
2023-01-29T04:41:04.225Z,102713.66
2023-01-29T04:43:46.357Z,102705.75
2023-01-29T04:46:19.627Z,102708.06
2023-01-29T04:49:02.828Z,102703.50
2023-01-29T04:51:39.168Z,102701.59
2023-01-29T04:54:12.576Z,102697.25
2023-01-29T04:56:48.294Z,102697.16
2023-01-29T04:59:22.818Z,102709.94
2023-01-29T05:01:51.129Z,102696.25
2023-01-29T05:04:22.830Z,102695.63
2023-01-29T05:06:51.563Z,102697.16
2023-01-29T05:09:20.995Z,102694.50
2023-01-29T05:11:51.301Z,102692.81
2023-01-29T05:14:21.051Z,102694.50
2023-01-29T05:16:52.817Z,102692.72
2023-01-29T05:19:22.201Z,102684.16
2023-01-29T05:21:51.498Z,102685.06
2023-01-29T05:24:22.090Z,102678.06
2023-01-29T05:27:11.735Z,102683.28
2023-01-29T05:29:41.377Z,102681.38
2023-01-29T05:32:09.420Z,102678.06
2023-01-29T05:34:39.216Z,102673.94
2023-01-29T05:37:07.279Z,102673.94
2023-01-29T05:39:35.300Z,102672.63
2023-01-29T05:42:03.689Z,102667.38
2023-01-29T05:44:31.710Z,102665.59
2023-01-29T05:46:59.686Z,102654.75
2023-01-29T05:49:27.679Z,102648.75
2023-01-29T05:51:57.064Z,102649.50
2023-01-29T05:54:25.097Z,102653.19
2023-01-29T05:56:53.132Z,102652.66
2023-01-29T05:59:21.487Z,102648.91
2023-01-29T06:01:49.555Z,102651.25
2023-01-29T06:04:17.598Z,102659.28
2023-01-29T06:06:45.671Z,102656.75
2023-01-29T06:09:15.224Z,102651.31
2023-01-29T06:11:43.201Z,102656.22
2023-01-29T06:14:11.353Z,102652.47
2023-01-29T06:16:39.428Z,102649.09
2023-01-29T06:19:07.449Z,102651.22
2023-01-29T06:21:35.429Z,102641.41
2023-01-29T06:24:03.543Z,102640.66
2023-01-29T06:26:32.958Z,102638.88
2023-01-29T06:29:00.982Z,102637.31
2023-01-29T06:31:39.689Z,102640.44
2023-01-29T06:34:08.227Z,102640.44
2023-01-29T06:36:36.475Z,102638.09
2023-01-29T06:39:04.986Z,102632.88
2023-01-29T06:41:34.654Z,102639.78
2023-01-29T06:44:02.729Z,102640.66
2023-01-29T06:46:30.788Z,102642.09
2023-01-29T06:49:00.427Z,102624.88
2023-01-29T06:51:28.558Z,102630.09
2023-01-29T06:53:56.582Z,102624.97
2023-01-29T06:56:25.311Z,102625.78
2023-01-29T06:58:54.739Z,102624.09
2023-01-29T07:01:35.184Z,102618.09
2023-01-29T07:04:04.444Z,102625.88
2023-01-29T07:06:32.790Z,102625.44
2023-01-29T07:09:01.130Z,102625.53
2023-01-29T07:11:29.161Z,102613.88
2023-01-29T07:13:58.646Z,102608.09
2023-01-29T07:16:27.294Z,102607.31
2023-01-29T07:18:55.385Z,102595.63
2023-01-29T07:21:23.522Z,102600.66
2023-01-29T07:23:51.601Z,102591.09
2023-01-29T07:26:19.611Z,102594.53
2023-01-29T07:28:47.750Z,102601.66
2023-01-29T07:31:17.307Z,102595.09
2023-01-29T07:33:45.945Z,102590.16
2023-01-29T07:36:14.826Z,102593.72
2023-01-29T07:38:42.858Z,102592.53
2023-01-29T07:41:12.692Z,102588.19
2023-01-29T07:43:40.808Z,102584.84
2023-01-29T07:46:09.661Z,102579.06
2023-01-29T07:48:39.220Z,102572.25
2023-01-29T07:51:07.781Z,102572.94
2023-01-29T07:53:35.937Z,102572.63
2023-01-29T07:56:04.436Z,102574.84
2023-01-29T07:58:35.648Z,102574.75
2023-01-29T08:01:06.953Z,102572.38
2023-01-29T08:03:35.014Z,102566.97
2023-01-29T08:06:04.954Z,102558.84
2023-01-29T08:08:33.041Z,102554.31
2023-01-29T08:11:03.046Z,102560.88
2023-01-29T08:13:31.113Z,102573.66
2023-01-29T08:16:02.150Z,102571.09
2023-01-29T08:18:31.641Z,102578.53
2023-01-29T08:21:04.529Z,102561.06
2023-01-29T08:23:32.538Z,102555.91
2023-01-29T08:26:00.648Z,102563.69
2023-01-29T08:28:30.599Z,102567.75
2023-01-29T08:30:58.762Z,102572.53
2023-01-29T08:33:38.363Z,102564.38
2023-01-29T08:36:09.422Z,102576.03
2023-01-29T08:38:37.700Z,102583.34
2023-01-29T08:41:05.948Z,102576.13
2023-01-29T08:43:35.324Z,102573.97
2023-01-29T08:46:05.448Z,102585.41
2023-01-29T08:48:33.502Z,102585.03
2023-01-29T08:51:02.511Z,102591.38
2023-01-29T08:53:32.058Z,102592.56
2023-01-29T08:56:00.183Z,102584.31
2023-01-29T08:58:28.297Z,102589.63
2023-01-29T09:00:56.569Z,102586.50
2023-01-29T09:03:24.649Z,102578.91
2023-01-29T09:05:52.630Z,102580.09
2023-01-29T09:08:20.642Z,102579.50
2023-01-29T09:10:50.030Z,102581.50
2023-01-29T09:13:18.068Z,102580.13
2023-01-29T09:15:46.077Z,102574.53
2023-01-29T09:18:14.040Z,102574.91
2023-01-29T09:20:42.136Z,102571.97
2023-01-29T09:23:11.409Z,102566.66
2023-01-29T09:25:39.451Z,102574.94
2023-01-29T09:28:08.944Z,102567.91
2023-01-29T09:30:38.310Z,102572.78
2023-01-29T09:33:06.692Z,102575.63
2023-01-29T09:35:35.085Z,102580.25
2023-01-29T09:38:03.108Z,102571.19
2023-01-29T09:40:36.940Z,102557.84
2023-01-29T09:43:14.059Z,102561.88
2023-01-29T09:45:51.433Z,102557.03
2023-01-29T09:48:22.216Z,102564.13
2023-01-29T09:50:52.757Z,102550.50
2023-01-29T09:53:26.397Z,102549.81
2023-01-29T09:56:00.162Z,102561.25
2023-01-29T09:58:33.720Z,102550.72
2023-01-29T10:01:10.771Z,102550.50
2023-01-29T10:04:03.844Z,102556.63
2023-01-29T10:06:51.071Z,102577.59
2023-01-29T10:09:49.200Z,102559.78
2023-01-29T10:12:31.506Z,102557.50
2023-01-29T10:15:10.725Z,102550.88
2023-01-29T10:17:54.713Z,102552.03
2023-01-29T10:20:50.189Z,102556.03
2023-01-29T10:23:23.447Z,102552.59
2023-01-29T10:25:51.495Z,102551.63
2023-01-29T10:28:21.880Z,102538.06
2023-01-29T10:30:55.706Z,102534.78
2023-01-29T10:33:31.050Z,102542.59
2023-01-29T10:36:08.478Z,102541.44
2023-01-29T10:38:44.157Z,102529.81
2023-01-29T10:41:46.320Z,102532.38
2023-01-29T10:44:28.647Z,102532.13
2023-01-29T10:47:19.666Z,102533.91
2023-01-29T10:50:06.516Z,102526.00
2023-01-29T10:52:45.896Z,102530.44
2023-01-29T10:55:29.454Z,102522.78
2023-01-29T10:58:05.381Z,102520.94
2023-01-29T11:00:38.610Z,102517.50
2023-01-29T11:03:27.096Z,102514.13
2023-01-29T11:06:02.672Z,102508.34
2023-01-29T11:08:36.298Z,102508.81
2023-01-29T11:11:09.540Z,102512.25
2023-01-29T11:13:43.986Z,102513.63
2023-01-29T11:16:12.098Z,102505.91
2023-01-29T11:18:58.714Z,102493.38
2023-01-29T11:21:28.536Z,102487.25
2023-01-29T11:24:08.523Z,102478.81
2023-01-29T11:26:40.395Z,102478.47
2023-01-29T11:29:32.788Z,102483.44
2023-01-29T11:32:02.628Z,102482.56
2023-01-29T11:34:32.353Z,102474.78
2023-01-29T11:37:01.943Z,102468.66
2023-01-29T11:39:33.754Z,102463.41
2023-01-29T11:42:03.859Z,102454.66
2023-01-29T11:44:33.231Z,102454.16
2023-01-29T11:47:19.252Z,102451.69
2023-01-29T11:49:51.617Z,102440.72
2023-01-29T11:52:22.204Z,102426.81
2023-01-29T11:54:54.659Z,102424.72
2023-01-29T11:57:34.372Z,102427.06
2023-01-29T12:00:06.696Z,102403.34
2023-01-29T12:02:38.535Z,102390.03
2023-01-29T12:05:17.556Z,102391.78
2023-01-29T12:07:49.077Z,102392.16
2023-01-29T12:10:36.682Z,102382.13
2023-01-29T12:13:26.995Z,102374.66
2023-01-29T12:16:13.963Z,102370.53
2023-01-29T12:18:45.562Z,102369.41
2023-01-29T12:21:20.241Z,102354.59
2023-01-29T12:23:56.282Z,102342.38
2023-01-29T12:26:31.136Z,102341.13
2023-01-29T12:29:15.093Z,102327.22
2023-01-29T12:31:50.490Z,102316.28
2023-01-29T12:34:24.855Z,102312.91
2023-01-29T12:37:00.638Z,102305.47
2023-01-29T12:39:28.888Z,102304.78
2023-01-29T12:42:03.564Z,102308.44
2023-01-29T12:44:42.327Z,102301.66
2023-01-29T12:47:20.358Z,102287.38
2023-01-29T12:49:55.119Z,102301.69
2023-01-29T12:52:31.881Z,102282.22
2023-01-29T12:55:03.853Z,102280.75
2023-01-29T12:57:40.626Z,102276.00
2023-01-29T13:00:15.696Z,102269.00
2023-01-29T13:02:51.089Z,102255.34
2023-01-29T13:05:24.553Z,102261.63
2023-01-29T13:07:59.416Z,102242.25
2023-01-29T13:10:32.090Z,102241.41
2023-01-29T13:13:05.187Z,102239.19
2023-01-29T13:15:38.111Z,102223.03
2023-01-29T13:18:32.249Z,102224.16
2023-01-29T13:21:01.561Z,102212.53
2023-01-29T13:23:36.142Z,102202.81
2023-01-29T13:26:05.757Z,102205.97
2023-01-29T13:28:34.064Z,102191.31
2023-01-29T13:31:23.657Z,102186.00
2023-01-29T13:34:00.854Z,102177.66
2023-01-29T13:36:32.866Z,102187.47
2023-01-29T13:39:07.176Z,102187.50
2023-01-29T13:41:37.834Z,102180.69
2023-01-29T13:44:09.368Z,102175.50
2023-01-29T13:46:42.777Z,102168.31
2023-01-29T13:49:27.958Z,102155.09
2023-01-29T13:51:56.261Z,102155.75
2023-01-29T13:54:29.186Z,102140.63
2023-01-29T13:57:02.197Z,102138.53
2023-01-29T13:59:52.037Z,102122.53
2023-01-29T14:02:27.791Z,102127.56
2023-01-29T14:05:28.836Z,102113.75
2023-01-29T14:07:59.298Z,102117.16
2023-01-29T14:10:30.103Z,102103.00
2023-01-29T14:13:27.699Z,102090.59
2023-01-29T14:16:25.546Z,102088.22
2023-01-29T14:18:58.415Z,102080.72
2023-01-29T14:21:32.754Z,102068.84
2023-01-29T14:24:10.953Z,102056.28
2023-01-29T14:26:49.850Z,102048.06
2023-01-29T14:29:32.635Z,102049.91
2023-01-29T14:32:17.824Z,102040.75
2023-01-29T14:34:49.176Z,102016.22
2023-01-29T14:37:23.681Z,102017.91
2023-01-29T14:39:53.299Z,102004.03
2023-01-29T14:42:27.004Z,102003.19
2023-01-29T14:45:11.356Z,102012.09
2023-01-29T14:47:59.718Z,102016.47
2023-01-29T14:50:53.267Z,102009.09
2023-01-29T14:53:26.652Z,102003.56
2023-01-29T14:56:00.180Z,102019.56
2023-01-29T14:58:38.060Z,102038.31
2023-01-29T15:01:16.063Z,102047.50
2023-01-29T15:03:50.056Z,102044.16
2023-01-29T15:06:23.005Z,102060.41
2023-01-29T15:08:56.904Z,102045.91
2023-01-29T15:11:35.127Z,102033.97
2023-01-29T15:14:24.970Z,102030.50
2023-01-29T15:17:19.512Z,102020.25
2023-01-29T15:19:49.301Z,102033.06
2023-01-29T15:22:18.762Z,102023.66
2023-01-29T15:24:49.336Z,102016.00
2023-01-29T15:27:19.741Z,102022.09
2023-01-29T15:29:55.737Z,102026.59
2023-01-29T15:32:30.275Z,102044.66
2023-01-29T15:35:00.432Z,102044.06
2023-01-29T15:37:29.357Z,102042.63
2023-01-29T15:39:58.369Z,102022.97
2023-01-29T15:42:28.508Z,102031.19
2023-01-29T15:44:58.006Z,102029.38
2023-01-29T15:47:30.018Z,102019.53
2023-01-29T15:49:58.789Z,102039.19
2023-01-29T15:52:33.115Z,102031.25
2023-01-29T15:55:05.953Z,102039.00
2023-01-29T15:57:40.600Z,102036.47
2023-01-29T16:00:23.539Z,102043.66
2023-01-29T16:02:52.150Z,102039.72
2023-01-29T16:05:23.226Z,102033.81
2023-01-29T16:07:52.427Z,102041.47
2023-01-29T16:10:22.420Z,102043.69
2023-01-29T16:12:52.782Z,102055.44
2023-01-29T16:15:54.571Z,102051.09
2023-01-29T16:18:25.299Z,102050.09
2023-01-29T16:20:54.728Z,102046.44
2023-01-29T16:23:27.736Z,102051.44
2023-01-29T16:25:57.825Z,102041.00
2023-01-29T16:28:25.956Z,102053.00
2023-01-29T16:31:01.870Z,102047.09
2023-01-29T16:33:36.348Z,102031.63
2023-01-29T16:36:06.221Z,102029.94
2023-01-29T16:38:37.226Z,102032.47
2023-01-29T16:41:09.517Z,102026.47
2023-01-29T16:43:49.182Z,102019.53
2023-01-29T16:46:22.635Z,102010.84
2023-01-29T16:49:26.014Z,102002.94
2023-01-29T16:51:54.732Z,101995.91
2023-01-29T16:54:26.552Z,101995.72
2023-01-29T16:56:59.924Z,101978.06
2023-01-29T16:59:33.631Z,101974.81
2023-01-29T17:02:04.124Z,101970.81
2023-01-29T17:04:32.250Z,101976.41
2023-01-29T17:07:02.541Z,101972.69
2023-01-29T17:09:33.739Z,101970.81
2023-01-29T17:12:06.517Z,101970.03
2023-01-29T17:14:36.068Z,101963.56
2023-01-29T17:17:07.871Z,101956.22
2023-01-29T17:19:35.925Z,101962.50
2023-01-29T17:22:10.599Z,101952.38
2023-01-29T17:24:41.331Z,101940.34
2023-01-29T17:27:27.397Z,101922.22
2023-01-29T17:30:01.847Z,101917.63
2023-01-29T17:32:43.550Z,101902.44
2023-01-29T17:35:14.388Z,101889.84
2023-01-29T17:37:42.575Z,101886.84
2023-01-29T17:40:35.009Z,101877.88
2023-01-29T17:43:03.100Z,101882.03
2023-01-29T17:45:46.769Z,101879.41
2023-01-29T17:48:20.277Z,101905.88
2023-01-29T17:50:53.482Z,101919.13
2023-01-29T17:53:44.328Z,101927.31
2023-01-29T17:56:33.638Z,101926.09
2023-01-29T17:59:02.103Z,101936.75
2023-01-29T18:01:30.547Z,101952.44
2023-01-29T18:04:03.311Z,101951.69
2023-01-29T18:06:33.603Z,101957.84
2023-01-29T18:09:01.754Z,101952.81
2023-01-29T18:11:29.926Z,101964.13
2023-01-29T18:14:03.603Z,101955.59
2023-01-29T18:16:45.546Z,101969.47
2023-01-29T18:19:27.663Z,101966.13
2023-01-29T18:21:55.964Z,101976.44
2023-01-29T18:24:26.613Z,101964.50
2023-01-29T18:26:54.830Z,101976.63
2023-01-29T18:29:23.103Z,101976.81
2023-01-29T18:31:51.206Z,101992.41
2023-01-29T18:34:39.531Z,102001.16
2023-01-29T18:37:12.959Z,101989.13
2023-01-29T18:39:47.029Z,101995.34
2023-01-29T18:42:15.089Z,101988.50
2023-01-29T18:44:56.837Z,101979.94
2023-01-29T18:47:31.414Z,101975.53
2023-01-29T18:50:00.995Z,101985.03
2023-01-29T18:52:29.134Z,101964.34
2023-01-29T18:55:03.357Z,101964.16
2023-01-29T18:58:26.937Z,101965.00
2023-01-29T19:00:20.303Z,101971.78
2023-01-29T19:02:57.874Z,101965.72
2023-01-29T19:05:38.933Z,101975.19
2023-01-29T19:08:07.489Z,101975.19
2023-01-29T19:10:41.742Z,101977.72
2023-01-29T19:13:16.370Z,101974.19
2023-01-29T19:15:45.199Z,101978.34
2023-01-29T19:18:14.704Z,101989.50
2023-01-29T19:20:51.246Z,101985.25
2023-01-29T19:23:19.382Z,101981.72
2023-01-29T19:25:54.345Z,101992.00
2023-01-29T19:28:22.737Z,101979.00
2023-01-29T19:30:50.948Z,101986.66
2023-01-29T19:33:19.217Z,101977.97
2023-01-29T19:35:50.959Z,101994.19
2023-01-29T19:38:28.877Z,101996.44
2023-01-29T19:41:00.844Z,101997.81
2023-01-29T19:43:31.835Z,102008.84
2023-01-29T19:46:03.014Z,102017.13
2023-01-29T19:48:34.905Z,102036.38
2023-01-29T19:51:08.968Z,102040.31
2023-01-29T19:53:38.145Z,102051.94
2023-01-29T19:56:14.224Z,102054.16
2023-01-29T19:58:43.130Z,102056.38
2023-01-29T20:01:16.038Z,102067.22
2023-01-29T20:03:46.549Z,102072.00
2023-01-29T20:06:17.790Z,102063.91
2023-01-29T20:08:46.865Z,102084.22
2023-01-29T20:11:15.832Z,102070.13
2023-01-29T20:13:44.710Z,102065.63
2023-01-29T20:16:13.091Z,102073.94
2023-01-29T20:18:41.264Z,102076.22
2023-01-29T20:21:11.923Z,102090.84
2023-01-29T20:23:43.742Z,102090.84
2023-01-29T20:26:15.029Z,102091.59
2023-01-29T20:28:43.449Z,102106.75
2023-01-29T20:31:11.789Z,102126.44
2023-01-29T20:33:40.454Z,102126.44
2023-01-29T20:36:11.555Z,102122.75
2023-01-29T20:38:41.193Z,102129.34
2023-01-29T20:41:10.811Z,102129.00
2023-01-29T20:43:39.173Z,102135.22
2023-01-29T20:46:07.832Z,102142.53
2023-01-29T20:48:36.207Z,102133.88
2023-01-29T20:51:09.909Z,102143.94
2023-01-29T20:53:38.695Z,102147.81
2023-01-29T20:56:09.193Z,102155.13
2023-01-29T20:58:41.011Z,102159.81
2023-01-29T21:01:10.260Z,102163.53
2023-01-29T21:03:39.106Z,102158.09
2023-01-29T21:06:08.600Z,102156.31
2023-01-29T21:08:37.476Z,102167.00
2023-01-29T21:11:06.654Z,102163.00
2023-01-29T21:13:36.550Z,102177.19
2023-01-29T21:16:05.102Z,102187.16
2023-01-29T21:18:33.600Z,102175.13
2023-01-29T21:21:01.645Z,102183.38
2023-01-29T21:23:29.869Z,102186.00
2023-01-29T21:26:03.627Z,102195.75
2023-01-29T21:28:32.019Z,102193.47
2023-01-29T21:31:10.298Z,102201.13
2023-01-29T21:33:38.757Z,102201.66
2023-01-29T21:36:08.499Z,102200.13
2023-01-29T21:38:36.565Z,102211.97
2023-01-29T21:41:07.306Z,102222.38
2023-01-29T21:43:34.620Z,102223.19
2023-01-29T21:46:05.193Z,102222.59
2023-01-29T21:48:34.759Z,102228.81
2023-01-29T21:51:02.965Z,102228.19
2023-01-29T21:53:31.034Z,102228.63
2023-01-29T21:56:01.077Z,102241.97
2023-01-29T21:58:29.370Z,102229.81
2023-01-29T22:01:18.122Z,102236.38
2023-01-29T22:03:47.640Z,102244.16
2023-01-29T22:06:15.923Z,102246.31
2023-01-29T22:08:44.236Z,102251.25
2023-01-29T22:11:12.639Z,102254.47
2023-01-29T22:13:40.795Z,102255.88
2023-01-29T22:16:09.478Z,102257.00
2023-01-29T22:18:37.475Z,102252.84
2023-01-29T22:21:07.119Z,102251.72
2023-01-29T22:23:35.134Z,102250.94
2023-01-29T22:26:07.171Z,102256.13
2023-01-29T22:28:35.254Z,102256.69
2023-01-29T22:31:03.631Z,102258.75
2023-01-29T22:33:32.170Z,102269.63
2023-01-29T22:36:00.842Z,102259.19
2023-01-29T22:38:30.776Z,102261.81
2023-01-29T22:41:01.454Z,102261.13
2023-01-29T22:43:30.265Z,102256.00
2023-01-29T22:45:58.687Z,102257.59
2023-01-29T22:48:27.082Z,102261.75
2023-01-29T22:51:09.547Z,102261.66
2023-01-29T22:53:39.719Z,102263.25
2023-01-29T22:56:08.392Z,102268.03
2023-01-29T22:58:36.475Z,102272.47
2023-01-29T23:01:04.966Z,102274.31
2023-01-29T23:03:33.135Z,102259.25
2023-01-29T23:06:01.305Z,102267.47
2023-01-29T23:08:29.475Z,102271.69
2023-01-29T23:11:14.211Z,102272.13
2023-01-29T23:13:43.986Z,102271.75
2023-01-29T23:16:12.235Z,102267.84
2023-01-29T23:18:40.423Z,102272.75
2023-01-29T23:21:08.760Z,102276.72
2023-01-29T23:23:38.678Z,102279.16
2023-01-29T23:26:26.427Z,102274.16
2023-01-29T23:28:54.490Z,102278.56
2023-01-29T23:31:22.691Z,102272.47
2023-01-29T23:33:50.822Z,102282.03
2023-01-29T23:36:19.240Z,102287.06
2023-01-29T23:38:47.259Z,102289.28
2023-01-29T23:41:16.666Z,102290.63
2023-01-29T23:43:44.757Z,102302.13
2023-01-29T23:46:12.885Z,102286.03
2023-01-29T23:48:40.986Z,102291.38
2023-01-29T23:51:09.021Z,102295.41
2023-01-29T23:53:37.145Z,102287.34
2023-01-29T23:56:06.534Z,102287.22
2023-01-29T23:58:36.428Z,102286.78
